Time;durP1;ratioP1;P1;durP2;ratioP2;P2;SDS_P1;SDS_P2;PMS_P1;PMS_P2;Temp;Humidity;BMP_temperature;BMP_pressure;BME280_temperature;BME280_humidity;BME280_pressure;Samples;Min_cycle;Max_cycle;Signal;HPM_P1;HPM_P2
2022/10/23 00:00:16;;;;;;;6.97;2.85;;;;;;;11.69;100.00;100692.19;697724;28;1595;-66
2022/10/23 00:00:36;;;;;;;8.37;3.10;;;;;;;11.69;100.00;100690.44;697142;28;1515;-64
2022/10/23 00:00:57;;;;;;;10.18;3.28;;;;;;;11.67;100.00;100692.22;697043;28;4413;-65
2022/10/23 00:01:27;;;;;;;8.47;3.20;;;;;;;11.68;100.00;100695.69;698160;28;1297;-65
2022/10/23 00:01:49;;;;;;;7.35;3.10;;;;;;;11.68;100.00;100686.06;697523;28;1354;-65
2022/10/23 00:02:09;;;;;;;6.28;3.00;;;;;;;11.70;100.00;100686.06;694042;28;1427;-65
2022/10/23 00:02:29;;;;;;;8.35;2.95;;;;;;;11.69;100.00;100686.97;692773;28;1261;-64
2022/10/23 00:02:53;;;;;;;8.80;3.00;;;;;;;11.64;100.00;100678.28;692753;28;939;-65
2022/10/23 00:03:13;;;;;;;9.00;3.20;;;;;;;11.63;100.00;100681.75;692128;28;1309;-64
2022/10/23 00:03:34;;;;;;;7.47;3.03;;;;;;;11.60;100.00;100682.66;692739;28;1248;-65
2022/10/23 00:03:57;;;;;;;6.78;3.00;;;;;;;11.61;100.00;100679.16;693329;28;4690;-65
2022/10/23 00:04:20;;;;;;;7.88;3.13;;;;;;;11.64;100.00;100683.50;697322;28;1269;-64
2022/10/23 00:04:41;;;;;;;7.65;3.05;;;;;;;11.67;100.00;100686.09;697099;28;1202;-64
2022/10/23 00:05:01;;;;;;;6.85;2.90;;;;;;;11.67;100.00;100678.25;696769;28;1510;-66
2022/10/23 00:05:22;;;;;;;7.93;2.80;;;;;;;11.69;100.00;100674.72;697778;28;1537;-65
2022/10/23 00:05:43;;;;;;;7.10;2.73;;;;;;;11.69;100.00;100679.09;696774;28;1341;-65
2022/10/23 00:06:04;;;;;;;6.72;2.83;;;;;;;11.66;100.00;100681.72;697662;28;1226;-65
2022/10/23 00:06:26;;;;;;;7.97;2.90;;;;;;;11.62;100.00;100667.81;697305;28;1232;-65
2022/10/23 00:06:48;;;;;;;9.02;3.03;;;;;;;11.58;100.00;100682.66;697047;28;4395;-64
2022/10/23 00:07:08;;;;;;;10.20;3.10;;;;;;;11.57;100.00;100682.69;697353;28;1438;-64
2022/10/23 00:07:28;;;;;;;9.17;3.10;;;;;;;11.59;100.00;100676.56;697654;28;1298;-65
2022/10/23 00:07:54;;;;;;;8.60;3.30;;;;;;;11.54;100.00;100674.88;697072;28;1214;-64
2022/10/23 00:08:14;;;;;;;8.20;3.25;;;;;;;11.52;100.00;100677.50;697619;28;1214;-65
2022/10/23 00:08:35;;;;;;;6.63;3.10;;;;;;;11.53;100.00;100674.00;695561;28;1330;-63
2022/10/23 00:08:56;;;;;;;6.60;2.78;;;;;;;11.53;100.00;100674.00;689792;28;1230;-64
2022/10/23 00:09:19;;;;;;;6.73;2.80;;;;;;;11.55;100.00;100674.84;690633;28;1381;-67
2022/10/23 00:09:40;;;;;;;7.38;2.70;;;;;;;11.54;100.00;100675.72;689617;28;4499;-64
2022/10/23 00:10:00;;;;;;;7.83;2.87;;;;;;;11.51;100.00;100675.75;690268;28;1425;-65
2022/10/23 00:10:22;;;;;;;7.05;2.95;;;;;;;11.52;100.00;100672.25;689839;28;1243;-65
2022/10/23 00:10:43;;;;;;;6.80;2.97;;;;;;;11.53;100.00;100683.59;692423;28;1379;-65
2022/10/23 00:11:08;;;;;;;6.40;3.00;;;;;;;11.52;100.00;100672.25;695356;28;1265;-64
2022/10/23 00:11:29;;;;;;;10.02;3.10;;;;;;;11.52;100.00;100677.50;696334;28;1260;-64
2022/10/23 00:11:50;;;;;;;8.73;3.08;;;;;;;11.54;100.00;100680.09;696670;28;1253;-65
2022/10/23 00:12:11;;;;;;;8.82;3.20;;;;;;;11.55;100.00;100679.22;700065;28;1274;-63
2022/10/23 00:12:31;;;;;;;8.30;3.03;;;;;;;11.57;100.00;100678.34;698931;28;1965;-64
2022/10/23 00:12:53;;;;;;;9.23;3.00;;;;;;;11.59;100.00;100678.31;699088;28;4296;-64
2022/10/23 00:13:13;;;;;;;7.35;2.95;;;;;;;11.63;100.00;100676.53;700152;28;1317;-65
2022/10/23 00:13:33;;;;;;;6.63;3.00;;;;;;;11.61;100.00;100675.69;699684;28;1429;-65
2022/10/23 00:13:57;;;;;;;8.80;3.07;;;;;;;11.61;100.00;100678.31;698966;28;1297;-65
2022/10/23 00:14:21;;;;;;;9.75;3.40;;;;;;;11.62;100.00;100672.19;695715;28;2138;-64
2022/10/23 00:14:42;;;;;;;8.60;3.10;;;;;;;11.66;100.00;100680.00;698347;28;1427;-64
2022/10/23 00:15:03;;;;;;;7.00;2.83;;;;;;;11.64;100.00;100678.28;698232;28;1507;-64
2022/10/23 00:15:26;;;;;;;8.00;2.97;;;;;;;11.62;100.00;100672.19;696339;28;1159;-65
2022/10/23 00:15:46;;;;;;;9.65;3.03;;;;;;;11.63;100.00;100673.91;693650;28;4344;-65
2022/10/23 00:16:08;;;;;;;7.75;2.88;;;;;;;11.62;100.00;100673.06;695482;28;1368;-66
2022/10/23 00:16:29;;;;;;;8.43;3.00;;;;;;;11.63;100.00;100672.19;697785;28;4015;-64
2022/10/23 00:16:49;;;;;;;7.28;2.80;;;;;;;11.67;100.00;100678.25;698350;28;1258;-66
2022/10/23 00:17:11;;;;;;;6.35;2.90;;;;;;;11.74;100.00;100672.94;694867;28;1419;-63
2022/10/23 00:17:33;;;;;;;10.10;3.20;;;;;;;11.78;100.00;100679.00;696288;28;1273;-65
2022/10/23 00:17:54;;;;;;;9.43;3.40;;;;;;;11.82;100.00;100679.84;698149;28;1301;-67
2022/10/23 00:18:14;;;;;;;9.10;3.10;;;;;;;11.82;100.00;100680.72;697748;28;1274;-65
2022/10/23 00:18:36;;;;;;;8.40;3.35;;;;;;;11.79;100.00;100675.50;698058;28;1234;-63
2022/10/23 00:18:56;;;;;;;8.23;3.35;;;;;;;11.77;100.00;100672.06;695895;28;4276;-65
2022/10/23 00:19:17;;;;;;;6.53;2.87;;;;;;;11.73;100.00;100678.19;697567;28;1250;-64
2022/10/23 00:19:37;;;;;;;6.47;2.97;;;;;;;11.71;100.00;100678.22;696519;28;1349;-65
2022/10/23 00:19:58;;;;;;;8.10;3.27;;;;;;;11.69;100.00;100672.09;697710;28;1435;-64
2022/10/23 00:20:18;;;;;;;7.90;3.07;;;;;;;11.68;100.00;100672.13;697664;28;1422;-65
2022/10/23 00:20:39;;;;;;;6.83;3.07;;;;;;;11.66;100.00;100676.50;697803;28;1412;-64
2022/10/23 00:20:59;;;;;;;8.02;3.13;;;;;;;11.62;100.00;100674.81;696583;28;1218;-65
2022/10/23 00:21:23;;;;;;;9.63;3.20;;;;;;;11.58;100.00;100672.19;696062;28;1396;-65
2022/10/23 00:21:43;;;;;;;8.63;3.42;;;;;;;11.56;100.00;100667.84;695978;28;4287;-65
2022/10/23 00:22:04;;;;;;;8.30;3.03;;;;;;;11.53;100.00;100674.00;698784;28;1083;-65
2022/10/23 00:22:24;;;;;;;9.38;3.00;;;;;;;11.51;100.00;100675.75;700050;28;1079;-64
2022/10/23 00:22:44;;;;;;;8.83;3.17;;;;;;;11.54;100.00;100664.41;699986;28;1257;-65
2022/10/23 00:23:05;;;;;;;8.13;2.90;;;;;;;11.54;100.00;100667.88;696548;28;1274;-65
2022/10/23 00:23:25;;;;;;;7.40;3.10;;;;;;;11.51;100.00;100670.53;696794;28;1220;-66
2022/10/23 00:23:46;;;;;;;6.40;3.10;;;;;;;11.50;100.00;100674.00;694589;28;1234;-65
2022/10/23 00:24:07;;;;;;;7.65;3.00;;;;;;;11.52;100.00;100674.00;688629;28;1579;-65
2022/10/23 00:24:28;;;;;;;8.00;3.15;;;;;;;11.54;100.00;100680.97;688447;28;1085;-65
2022/10/23 00:24:48;;;;;;;7.00;2.90;;;;;;;11.56;100.00;100673.97;687847;28;4510;-65
2022/10/23 00:25:09;;;;;;;7.10;3.03;;;;;;;11.53;100.00;100674.00;692207;28;1275;-65
2022/10/23 00:25:31;;;;;;;7.50;3.30;;;;;;;11.54;100.00;100677.47;692568;28;1204;-65
2022/10/23 00:25:51;;;;;;;8.55;3.38;;;;;;;11.56;100.00;100673.97;695404;28;1253;-65
2022/10/23 00:26:16;;;;;;;7.93;3.20;;;;;;;11.55;100.00;100677.47;694788;28;1114;-64
2022/10/23 00:26:39;;;;;;;7.97;3.20;;;;;;;11.56;100.00;100676.59;692899;28;1372;-64
2022/10/23 00:26:59;;;;;;;8.88;2.92;;;;;;;11.55;100.00;100672.22;692072;28;2160;-64
2022/10/23 00:27:20;;;;;;;6.97;3.10;;;;;;;11.58;100.00;100676.56;691334;28;1316;-64
2022/10/23 00:27:40;;;;;;;8.48;3.25;;;;;;;11.58;100.00;100677.44;689602;28;4666;-64
2022/10/23 00:28:01;;;;;;;9.33;3.03;;;;;;;11.58;100.00;100677.44;693019;28;1349;-65
2022/10/23 00:28:22;;;;;;;7.55;2.75;;;;;;;11.58;100.00;100682.66;692415;28;1377;-64
2022/10/23 00:28:44;;;;;;;6.72;2.72;;;;;;;11.58;100.00;100682.66;693281;28;1575;-65
2022/10/23 00:29:05;;;;;;;8.73;3.00;;;;;;;11.56;100.00;100686.19;690795;28;1326;-65
2022/10/23 00:29:27;;;;;;;8.90;2.90;;;;;;;11.56;100.00;100679.22;691274;28;1221;-64
2022/10/23 00:29:48;;;;;;;7.07;3.00;;;;;;;11.56;100.00;100687.06;693011;28;1289;-64
2022/10/23 00:30:09;;;;;;;7.63;2.83;;;;;;;11.55;100.00;100682.69;695057;28;1230;-64
2022/10/23 00:30:29;;;;;;;8.65;2.90;;;;;;;11.56;100.00;100683.56;695427;28;1262;-66
2022/10/23 00:30:50;;;;;;;8.13;3.10;;;;;;;11.55;100.00;100687.09;695224;28;4323;-66
2022/10/23 00:31:11;;;;;;;7.53;3.20;;;;;;;11.52;100.00;100677.50;695942;28;1190;-67
2022/10/23 00:31:34;;;;;;;8.15;3.10;;;;;;;11.51;100.00;100682.75;696467;28;1391;-66
2022/10/23 00:31:55;;;;;;;7.43;2.90;;;;;;;11.52;100.00;100682.75;696639;28;1353;-65
2022/10/23 00:32:15;;;;;;;6.13;2.67;;;;;;;11.56;100.00;100679.22;697755;28;1392;-67
2022/10/23 00:32:35;;;;;;;8.00;3.10;;;;;;;11.58;100.00;100680.06;693358;28;1910;-66
2022/10/23 00:32:56;;;;;;;7.67;3.07;;;;;;;11.56;100.00;100680.94;696470;28;1622;-66
2022/10/23 00:33:17;;;;;;;8.15;3.17;;;;;;;11.53;100.00;100679.25;697029;28;1305;-66
2022/10/23 00:33:38;;;;;;;6.95;3.10;;;;;;;11.55;100.00;100672.22;696334;28;4594;-66
2022/10/23 00:33:58;;;;;;;5.90;2.93;;;;;;;11.54;100.00;100680.97;694757;28;1286;-63
2022/10/23 00:34:20;;;;;;;6.50;3.20;;;;;;;11.54;100.00;100674.88;694036;28;2169;-66
2022/10/23 00:34:40;;;;;;;7.70;3.30;;;;;;;11.55;100.00;100684.47;689965;28;1453;-65
2022/10/23 00:35:01;;;;;;;7.73;2.93;;;;;;;11.55;100.00;100671.38;689243;28;1366;-65
2022/10/23 00:35:21;;;;;;;8.88;3.25;;;;;;;11.53;100.00;100679.25;689217;28;1326;-65
2022/10/23 00:35:42;;;;;;;7.80;3.00;;;;;;;11.52;100.00;100676.63;686915;28;1461;-65
2022/10/23 00:36:08;;;;;;;7.75;3.08;;;;;;;11.51;100.00;100682.75;689295;28;1531;-64
2022/10/23 00:36:28;;;;;;;6.90;3.05;;;;;;;11.53;100.00;100676.63;696299;28;1281;-64
2022/10/23 00:36:49;;;;;;;6.63;2.92;;;;;;;11.55;100.00;100679.22;694559;28;4362;-64
2022/10/23 00:37:09;;;;;;;8.17;3.17;;;;;;;11.53;100.00;100671.38;695431;28;1293;-65
2022/10/23 00:37:30;;;;;;;9.23;2.90;;;;;;;11.53;100.00;100674.00;695659;28;1279;-65
2022/10/23 00:37:51;;;;;;;8.07;2.65;;;;;;;11.55;100.00;100674.84;692756;28;1290;-64
2022/10/23 00:38:12;;;;;;;6.63;2.67;;;;;;;11.55;100.00;100677.47;692523;28;1283;-65
2022/10/23 00:38:33;;;;;;;7.70;2.88;;;;;;;11.56;100.00;100679.22;694483;28;1255;-65
2022/10/23 00:38:53;;;;;;;5.88;2.90;;;;;;;11.58;100.00;100673.97;689742;28;5113;-65
2022/10/23 00:39:14;;;;;;;6.70;2.90;;;;;;;11.61;100.00;100673.94;687136;28;2073;-65
2022/10/23 00:39:34;;;;;;;7.20;2.80;;;;;;;11.63;100.00;100676.53;687350;28;1295;-65
2022/10/23 00:39:55;;;;;;;7.07;2.97;;;;;;;11.65;100.00;100677.41;686447;28;4433;-65
2022/10/23 00:40:15;;;;;;;7.40;3.20;;;;;;;11.63;100.00;100677.41;686232;28;1625;-65
2022/10/23 00:40:38;;;;;;;5.83;2.93;;;;;;;11.69;100.00;100681.72;689631;28;1306;-65
2022/10/23 00:40:58;;;;;;;7.82;3.00;;;;;;;11.70;100.00;100680.81;694971;28;1231;-65
2022/10/23 00:41:27;;;;;;;8.40;3.33;;;;;;;11.71;100.00;100677.31;697094;28;1460;-64
2022/10/23 00:41:47;;;;;;;8.20;3.20;;;;;;;11.72;100.00;100684.31;697947;28;1312;-65
2022/10/23 00:42:14;;;;;;;7.10;2.80;;;;;;;11.69;100.00;100682.59;698527;28;1316;-65
2022/10/23 00:42:36;;;;;;;8.45;3.47;;;;;;;11.67;100.00;100681.75;700659;28;1285;-64
2022/10/23 00:42:57;;;;;;;8.37;3.23;;;;;;;11.70;100.00;100686.06;696010;28;5616;-65
2022/10/23 00:43:23;;;;;;;7.53;2.97;;;;;;;11.66;100.00;100680.00;697548;28;1400;-65
2022/10/23 00:43:55;;;;;;;5.93;3.00;;;;;;;11.68;100.00;100685.22;696333;28;1227;-65
2022/10/23 00:44:21;;;;;;;6.47;2.97;;;;;;;11.71;100.00;100674.72;695889;28;1352;-65
2022/10/23 00:44:41;;;;;;;7.38;3.20;;;;;;;11.68;100.00;100683.44;697273;28;1305;-65
2022/10/23 00:45:13;;;;;;;6.83;2.90;;;;;;;11.63;100.00;100673.91;696430;28;1402;-65
2022/10/23 00:45:34;;;;;;;8.10;2.80;;;;;;;11.62;100.00;100680.91;694450;28;1207;-64
2022/10/23 00:45:55;;;;;;;9.10;3.07;;;;;;;11.63;100.00;100687.00;693191;28;4757;-64
2022/10/23 00:46:16;;;;;;;7.15;2.90;;;;;;;11.61;100.00;100679.16;693908;28;1344;-65
2022/10/23 00:46:37;;;;;;;6.27;2.90;;;;;;;11.57;100.00;100680.97;693313;28;1139;-65
2022/10/23 00:46:59;;;;;;;8.27;3.20;;;;;;;11.55;100.00;100677.47;696060;28;1524;-65
2022/10/23 00:47:20;;;;;;;7.25;3.03;;;;;;;11.52;100.00;100674.88;697250;28;1401;-65
2022/10/23 00:47:41;;;;;;;9.82;2.88;;;;;;;11.51;100.00;100675.75;698792;28;1396;-65
2022/10/23 00:48:02;;;;;;;8.43;2.97;;;;;;;11.57;100.00;100683.56;696686;28;1460;-66
2022/10/23 00:48:23;;;;;;;8.25;3.10;;;;;;;11.56;100.00;100680.94;697478;28;1413;-65
2022/10/23 00:48:44;;;;;;;7.95;3.10;;;;;;;11.55;100.00;100679.22;697258;28;4368;-66
2022/10/23 00:49:05;;;;;;;8.55;3.10;;;;;;;11.56;100.00;100683.56;698217;28;1307;-65
2022/10/23 00:49:27;;;;;;;7.15;3.00;;;;;;;11.55;100.00;100682.69;693905;28;1300;-65
2022/10/23 00:49:47;;;;;;;6.25;2.85;;;;;;;11.55;100.00;100680.09;694923;28;1289;-65
2022/10/23 00:50:08;;;;;;;8.07;2.90;;;;;;;11.52;100.00;100682.75;694835;28;1305;-65
2022/10/23 00:50:31;;;;;;;7.43;2.73;;;;;;;11.52;100.00;100677.50;694877;28;1325;-66
2022/10/23 00:50:51;;;;;;;7.63;3.00;;;;;;;11.52;100.00;100684.47;691840;28;1488;-64
2022/10/23 00:51:12;;;;;;;7.40;3.03;;;;;;;11.51;100.00;100675.75;692984;28;1285;-64
2022/10/23 00:51:37;;;;;;;7.75;3.20;;;;;;;11.52;100.00;100674.00;694077;28;1265;-66
2022/10/23 00:52:00;;;;;;;7.18;3.00;;;;;;;11.49;100.00;100677.53;693061;28;4644;-66
2022/10/23 00:52:21;;;;;;;6.63;2.83;;;;;;;11.51;100.00;100677.53;695361;28;1472;-65
2022/10/23 00:52:47;;;;;;;6.63;2.70;;;;;;;11.48;100.00;100674.91;696556;28;1910;-65
2022/10/23 00:53:09;;;;;;;7.35;3.00;;;;;;;11.48;100.00;100673.19;696815;28;1221;-66
2022/10/23 00:53:29;;;;;;;8.18;2.95;;;;;;;11.52;100.00;100674.00;697642;28;1569;-64
2022/10/23 00:53:53;;;;;;;7.40;3.10;;;;;;;11.52;100.00;100676.63;696421;28;1309;-65
2022/10/23 00:54:17;;;;;;;7.13;2.80;;;;;;;11.47;100.00;100667.94;695980;28;1329;-65
2022/10/23 00:54:40;;;;;;;9.85;3.17;;;;;;;11.42;100.00;100670.59;693330;28;4436;-69
2022/10/23 00:55:01;;;;;;;7.95;3.03;;;;;;;11.41;100.00;100674.09;692580;28;1457;-66
2022/10/23 00:55:24;;;;;;;6.90;2.78;;;;;;;11.46;100.00;100671.44;692471;28;1327;-66
2022/10/23 00:55:47;;;;;;;8.45;2.92;;;;;;;11.49;100.00;100667.06;689606;28;1461;-64
2022/10/23 00:56:08;;;;;;;6.80;3.20;;;;;;;11.50;100.00;100673.16;689557;28;1307;-64
2022/10/23 00:56:30;;;;;;;7.07;3.00;;;;;;;11.52;100.00;100667.03;689284;28;1350;-65
2022/10/23 00:56:57;;;;;;;7.78;3.10;;;;;;;11.55;100.00;100668.75;687627;28;1514;-65
2022/10/23 00:57:17;;;;;;;5.75;2.70;;;;;;;11.57;100.00;100669.59;690704;28;1410;-65
2022/10/23 00:57:43;;;;;;;6.80;2.77;;;;;;;11.57;100.00;100664.38;693807;28;4315;-66
2022/10/23 00:58:04;;;;;;;7.22;2.88;;;;;;;11.55;100.00;100661.75;690822;28;1303;-66
2022/10/23 00:58:24;;;;;;;6.43;3.20;;;;;;;11.53;100.00;100663.53;694936;28;1242;-65
2022/10/23 00:58:45;;;;;;;6.00;2.90;;;;;;;11.52;100.00;100666.13;695568;28;1274;-64
2022/10/23 00:59:05;;;;;;;6.05;2.80;;;;;;;11.51;100.00;100670.53;694124;28;1708;-64
2022/10/23 00:59:26;;;;;;;6.93;2.87;;;;;;;11.49;100.00;100661.81;695092;28;1191;-67
2022/10/23 00:59:46;;;;;;;8.10;3.10;;;;;;;11.51;100.00;100661.81;696102;28;1277;-64
2022/10/23 01:00:08;;;;;;;6.97;3.00;;;;;;;11.53;100.00;100658.31;694307;28;1530;-65
2022/10/23 01:00:54;;;;;;;6.82;2.75;;;;;;;11.57;100.00;100670.47;691790;28;1278;-65
2022/10/23 01:01:18;;;;;;;8.63;3.22;;;;;;;11.54;100.00;100659.16;691448;28;4750;-64
2022/10/23 01:01:40;;;;;;;7.90;3.00;;;;;;;11.57;100.00;100666.97;689943;28;1401;-65
2022/10/23 01:02:01;;;;;;;7.00;2.90;;;;;;;11.56;100.00;100663.50;691758;28;1406;-64
2022/10/23 01:02:21;;;;;;;6.73;2.90;;;;;;;11.56;100.00;100663.50;690604;28;1488;-65
2022/10/23 01:02:43;;;;;;;9.10;3.30;;;;;;;11.55;100.00;100659.13;688658;28;1452;-65
2022/10/23 01:03:04;;;;;;;9.32;3.20;;;;;;;11.52;100.00;100656.56;688415;28;1243;-64
2022/10/23 01:03:27;;;;;;;5.97;2.93;;;;;;;11.51;100.00;100661.81;689515;28;1286;-66
2022/10/23 01:03:49;;;;;;;6.18;2.97;;;;;;;11.50;100.00;100663.53;689478;28;4300;-64
2022/10/23 01:04:10;;;;;;;7.10;3.00;;;;;;;11.52;100.00;100663.53;690658;28;1369;-65
2022/10/23 01:04:32;;;;;;;8.18;2.88;;;;;;;11.53;100.00;100662.66;690550;28;841;-64
2022/10/23 01:04:53;;;;;;;8.05;2.70;;;;;;;11.51;100.00;100662.66;692083;28;1200;-65
2022/10/23 01:05:14;;;;;;;8.00;2.95;;;;;;;11.51;100.00;100665.28;692061;28;1072;-64
2022/10/23 01:05:43;;;;;;;10.07;3.20;;;;;;;11.51;100.00;100667.03;693485;28;1183;-65
2022/10/23 01:06:19;;;;;;;8.57;3.10;;;;;;;11.52;100.00;100667.03;696800;28;875;-68
2022/10/23 01:06:44;;;;;;;7.47;3.20;;;;;;;11.49;100.00;100659.22;694820;28;4511;-64
2022/10/23 01:07:26;;;;;;;6.22;2.95;;;;;;;11.46;100.00;100664.44;696904;28;1226;-65
2022/10/23 01:07:54;;;;;;;7.32;2.85;;;;;;;11.45;100.00;100665.34;698550;28;1491;-63
2022/10/23 01:08:27;;;;;;;7.00;2.80;;;;;;;11.50;100.00;100665.31;699513;28;1309;-64
2022/10/23 01:08:55;;;;;;;8.48;2.90;;;;;;;11.55;100.00;100659.13;700209;28;1237;-64
2022/10/23 01:09:22;;;;;;;7.80;2.70;;;;;;;11.56;100.00;100658.28;698722;28;1249;-63
2022/10/23 01:10:02;;;;;;;6.50;2.75;;;;;;;11.54;100.00;100665.25;693749;28;4579;-64
2022/10/23 01:10:36;;;;;;;8.48;3.28;;;;;;;11.53;100.00;100657.41;693009;28;1242;-65
2022/10/23 01:11:05;;;;;;;7.20;3.20;;;;;;;11.49;100.00;100669.69;692179;28;1259;-66
2022/10/23 01:11:43;;;;;;;8.98;2.97;;;;;;;11.55;100.00;100661.75;694759;28;1298;-66
2022/10/23 01:12:22;;;;;;;7.72;2.85;;;;;;;11.52;100.00;100663.53;697377;28;1164;-65
2022/10/23 01:12:52;;;;;;;6.40;2.80;;;;;;;11.51;100.00;100662.66;694405;28;4442;-67
2022/10/23 01:13:35;;;;;;;6.95;2.88;;;;;;;11.55;100.00;100659.13;691390;28;1350;-63
2022/10/23 01:14:19;;;;;;;7.45;2.83;;;;;;;11.58;100.00;100666.09;692133;28;1466;-64
2022/10/23 01:14:57;;;;;;;7.40;2.90;;;;;;;11.53;100.00;100662.66;695469;28;2202;-64
2022/10/23 01:15:20;;;;;;;6.25;2.90;;;;;;;11.48;100.00;100660.09;696891;28;1411;-64
2022/10/23 01:16:07;;;;;;;7.97;2.90;;;;;;;11.45;100.00;100660.13;696444;28;4372;-65
2022/10/23 01:16:43;;;;;;;7.00;2.70;;;;;;;11.46;100.00;100659.22;692859;28;1396;-64
2022/10/23 01:17:18;;;;;;;9.57;3.10;;;;;;;11.45;100.00;100660.13;695974;28;1390;-64
2022/10/23 01:17:47;;;;;;;10.25;2.83;;;;;;;11.48;100.00;100661.81;697005;28;1211;-63
2022/10/23 01:18:19;;;;;;;6.03;2.50;;;;;;;11.52;100.00;100661.78;694889;28;1395;-63
2022/10/23 01:18:49;;;;;;;7.35;2.75;;;;;;;11.53;100.00;100654.78;697429;28;4446;-65
2022/10/23 01:19:24;;;;;;;7.50;2.70;;;;;;;11.54;100.00;100659.16;694012;28;1238;-64
2022/10/23 01:20:30;;;;;;;9.70;2.92;;;;;;;11.48;100.00;100660.09;694851;28;1249;-65
2022/10/23 01:21:04;;;;;;;7.78;3.03;;;;;;;11.51;100.00;100662.66;694518;28;2633;-65
2022/10/23 01:21:38;;;;;;;6.88;2.83;;;;;;;11.52;100.00;100661.78;695057;28;1364;-65
2022/10/23 01:22:04;;;;;;;7.57;2.83;;;;;;;11.48;100.00;100661.81;694021;28;4962;-65
2022/10/23 01:23:04;;;;;;;6.78;2.92;;;;;;;11.47;100.00;100666.19;692217;28;1597;-65
2022/10/23 01:23:53;;;;;;;7.80;3.03;;;;;;;11.47;100.00;100662.72;697339;28;1166;-66
2022/10/23 01:24:42;;;;;;;5.47;2.70;;;;;;;11.45;100.00;100659.22;692359;28;1368;-66
2022/10/23 01:25:36;;;;;;;7.75;3.03;;;;;;;11.47;100.00;100663.56;694284;28;6344;-66
2022/10/23 01:26:11;;;;;;;5.45;2.90;;;;;;;11.47;100.00;100663.56;692780;28;2185;-65
2022/10/23 01:26:54;;;;;;;7.65;3.10;;;;;;;11.49;100.00;100667.06;691974;28;1911;-65
2022/10/23 01:27:25;;;;;;;7.25;3.08;;;;;;;11.49;100.00;100663.56;695134;28;1363;-66
2022/10/23 01:27:54;;;;;;;6.55;2.95;;;;;;;11.45;100.00;100654.88;691960;28;4509;-66
2022/10/23 01:28:24;;;;;;;7.85;3.20;;;;;;;11.44;100.00;100663.59;691525;28;1498;-65
2022/10/23 01:29:18;;;;;;;5.38;2.70;;;;;;;11.50;100.00;100660.91;692429;28;1290;-65
2022/10/23 01:29:44;;;;;;;6.20;2.78;;;;;;;11.44;100.00;100658.38;680474;28;1474;-65
2022/10/23 01:30:11;;;;;;;8.10;3.00;;;;;;;11.47;100.00;100666.19;678741;29;1335;-65
2022/10/23 01:30:41;;;;;;;10.95;3.15;;;;;;;11.46;100.00;100666.22;689949;28;1582;-65
2022/10/23 01:31:10;;;;;;;7.85;2.88;;;;;;;11.44;100.00;100663.59;685639;28;5081;-66
2022/10/23 01:32:09;;;;;;;8.07;3.00;;;;;;;11.49;100.00;100660.94;688075;28;1196;-65
2022/10/23 01:32:47;;;;;;;6.10;2.80;;;;;;;11.47;100.00;100658.34;693826;28;1901;-65
2022/10/23 01:33:21;;;;;;;8.98;2.97;;;;;;;11.38;100.00;100664.53;693100;28;1401;-65
2022/10/23 01:33:50;;;;;;;8.13;3.15;;;;;;;11.36;100.00;100660.19;689394;28;4584;-66
2022/10/23 01:34:25;;;;;;;8.93;3.30;;;;;;;11.36;100.00;100665.41;687897;28;1301;-65
2022/10/23 01:35:15;;;;;;;7.30;2.92;;;;;;;11.34;100.00;100659.31;688419;28;1219;-66
2022/10/23 01:35:42;;;;;;;8.45;3.10;;;;;;;11.38;100.00;100655.78;688475;28;1860;-64
2022/10/23 01:36:06;;;;;;;7.43;3.00;;;;;;;11.39;100.00;100650.56;690551;28;1494;-65
2022/10/23 01:36:29;;;;;;;8.38;2.83;;;;;;;11.43;100.00;100653.16;693101;28;1340;-66
2022/10/23 01:36:53;;;;;;;5.50;2.58;;;;;;;11.45;100.00;100651.38;695022;28;4286;-66
2022/10/23 01:37:30;;;;;;;5.82;2.70;;;;;;;11.47;100.00;100650.47;694708;28;1218;-66
2022/10/23 01:38:08;;;;;;;6.15;2.95;;;;;;;11.42;100.00;100644.41;692360;28;1458;-64
2022/10/23 01:38:38;;;;;;;8.40;2.88;;;;;;;11.41;100.00;100643.56;690419;28;1488;-64
2022/10/23 01:39:13;;;;;;;5.93;2.80;;;;;;;11.38;100.00;100648.81;688512;28;1384;-64
2022/10/23 01:39:38;;;;;;;7.10;2.90;;;;;;;11.38;100.00;100646.22;687451;28;1570;-65
2022/10/23 01:40:04;;;;;;;8.25;2.80;;;;;;;11.39;100.00;100641.81;687140;28;5092;-64
2022/10/23 01:40:33;;;;;;;7.32;3.10;;;;;;;11.42;100.00;100641.78;689424;28;1569;-64
2022/10/23 01:41:01;;;;;;;6.20;2.63;;;;;;;11.45;100.00;100641.78;687619;28;1317;-64
2022/10/23 01:41:31;;;;;;;7.03;2.60;;;;;;;11.39;100.00;100637.47;688227;28;1395;-65
2022/10/23 01:41:58;;;;;;;8.25;3.17;;;;;;;11.39;100.00;100639.22;687712;28;1438;-65
2022/10/23 01:42:29;;;;;;;7.68;2.90;;;;;;;11.42;100.00;100639.19;690029;28;1693;-64
2022/10/23 01:42:55;;;;;;;6.50;2.72;;;;;;;11.41;100.00;100635.72;689019;28;4328;-65
2022/10/23 01:43:26;;;;;;;6.85;2.90;;;;;;;11.46;100.00;100634.78;689842;28;1587;-64
2022/10/23 01:44:14;;;;;;;9.50;3.53;;;;;;;11.45;100.00;100631.31;690526;28;1203;-66
2022/10/23 01:44:40;;;;;;;8.00;3.00;;;;;;;11.48;100.00;100633.91;681085;28;1367;-65
2022/10/23 01:45:08;;;;;;;7.47;2.80;;;;;;;11.50;100.00;100628.66;688569;28;1426;-65
2022/10/23 01:45:39;;;;;;;7.22;2.83;;;;;;;11.45;100.00;100625.19;691255;28;1484;-65
2022/10/23 01:46:07;;;;;;;9.07;3.10;;;;;;;11.47;100.00;100626.06;692802;28;6514;-65
2022/10/23 01:46:34;;;;;;;6.53;2.80;;;;;;;11.47;100.00;100629.53;691967;28;1227;-65
2022/10/23 01:46:56;;;;;;;8.25;3.20;;;;;;;11.46;100.00;100629.56;693928;28;1310;-65
2022/10/23 01:47:21;;;;;;;6.28;2.92;;;;;;;11.46;100.00;100626.94;691677;28;1469;-65
2022/10/23 01:47:53;;;;;;;7.85;2.90;;;;;;;11.46;100.00;100625.19;692488;28;1622;-65
2022/10/23 01:48:18;;;;;;;7.82;2.92;;;;;;;11.47;100.00;100621.69;689716;28;1202;-64
2022/10/23 01:48:44;;;;;;;7.82;2.90;;;;;;;11.51;100.00;100620.78;690397;28;4326;-64
2022/10/23 01:49:10;;;;;;;7.32;3.00;;;;;;;11.55;100.00;100619.88;692156;28;1242;-64
2022/10/23 01:49:31;;;;;;;7.10;2.80;;;;;;;11.53;100.00;100615.53;693487;28;1247;-65
2022/10/23 01:49:54;;;;;;;8.77;2.80;;;;;;;11.53;100.00;100623.38;693122;28;1364;-64
2022/10/23 01:50:16;;;;;;;6.35;2.67;;;;;;;11.53;100.00;100616.41;695615;28;1274;-65
2022/10/23 01:50:41;;;;;;;6.85;2.85;;;;;;;11.52;100.00;100625.16;695848;28;1648;-65
2022/10/23 01:51:06;;;;;;;6.68;2.72;;;;;;;11.53;100.00;100620.75;695824;28;1286;-65
2022/10/23 01:51:29;;;;;;;7.15;2.92;;;;;;;11.56;100.00;100620.72;695822;28;1254;-65
2022/10/23 01:51:59;;;;;;;8.10;2.72;;;;;;;11.57;100.00;100618.13;692195;28;4524;-65
2022/10/23 01:52:20;;;;;;;6.57;2.88;;;;;;;11.59;100.00;100616.34;690379;28;1348;-65
2022/10/23 01:52:43;;;;;;;7.18;3.00;;;;;;;11.73;100.00;100625.81;687646;28;1961;-65
2022/10/23 01:53:03;;;;;;;8.23;3.15;;;;;;;11.78;100.00;100626.63;684574;28;1461;-65
2022/10/23 01:53:29;;;;;;;9.95;3.33;;;;;;;11.80;100.00;100627.50;684718;28;1343;-65
2022/10/23 01:53:54;;;;;;;9.30;3.40;;;;;;;11.81;100.00;100625.72;686236;28;1581;-64
2022/10/23 01:54:17;;;;;;;7.70;3.13;;;;;;;11.80;100.00;100622.25;686845;28;1231;-64
2022/10/23 01:54:41;;;;;;;6.90;2.80;;;;;;;11.81;100.00;100626.59;684353;28;4442;-64
2022/10/23 01:55:02;;;;;;;7.53;2.90;;;;;;;11.79;100.00;100623.13;687045;28;1442;-65
2022/10/23 01:55:26;;;;;;;7.28;2.80;;;;;;;11.78;100.00;100626.63;688284;28;1225;-65
2022/10/23 01:55:48;;;;;;;6.32;2.90;;;;;;;11.79;100.00;100624.88;688641;28;1281;-66
2022/10/23 01:56:21;;;;;;;5.85;2.60;;;;;;;11.79;100.00;100617.03;692554;28;1423;-66
2022/10/23 01:56:45;;;;;;;7.35;2.70;;;;;;;11.79;100.00;100623.13;689565;28;1380;-65
2022/10/23 01:57:14;;;;;;;7.80;2.90;;;;;;;11.77;100.00;100622.28;692919;28;1122;-66
2022/10/23 01:57:37;;;;;;;5.88;2.90;;;;;;;11.75;100.00;100626.66;693052;28;1241;-66
2022/10/23 01:58:01;;;;;;;7.38;2.80;;;;;;;11.76;100.00;100623.16;692481;28;4772;-66
2022/10/23 01:58:31;;;;;;;7.32;2.83;;;;;;;11.76;100.00;100610.91;690594;28;1128;-64
2022/10/23 01:58:55;;;;;;;8.10;2.90;;;;;;;11.78;100.00;100617.91;689805;28;2159;-64
2022/10/23 01:59:23;;;;;;;8.85;2.88;;;;;;;11.81;100.00;100615.25;689293;28;1236;-65